createdAt,value
2018-04-14T00:02:17.625Z,9.57
2018-04-14T00:08:08.353Z,3.89
2018-04-14T00:13:58.929Z,7.88
2018-04-14T00:19:49.630Z,3.69
2018-04-14T00:25:40.292Z,3.6
2018-04-14T00:31:30.889Z,5.43
2018-04-14T00:37:21.570Z,5.68
2018-04-14T00:43:12.192Z,5.27
2018-04-14T00:49:02.926Z,5.58
2018-04-14T00:54:53.506Z,6.24
2018-04-14T01:00:44.197Z,5.84
2018-04-14T01:06:34.912Z,4.98
2018-04-14T01:12:25.508Z,4.18
2018-04-14T01:18:16.144Z,7.23
2018-04-14T01:24:06.785Z,3.97
2018-04-14T01:29:57.525Z,6.48
2018-04-14T01:35:48.120Z,6.31
2018-04-14T01:41:38.778Z,10.09
2018-04-14T01:47:29.442Z,6.21
2018-04-14T01:53:20.134Z,6.76
2018-04-14T01:59:10.716Z,7.66
2018-04-14T02:05:01.404Z,7.8
2018-04-14T02:10:52.112Z,7.34
2018-04-14T02:16:42.756Z,7.19
2018-04-14T02:22:33.378Z,10.74
2018-04-14T02:28:24.016Z,8.9
2018-04-14T02:34:14.663Z,11.13
2018-04-14T02:40:05.321Z,8.8
2018-04-14T02:45:56.028Z,12.25
2018-04-14T02:51:46.638Z,10.29
2018-04-14T02:57:37.251Z,9.34
2018-04-14T03:03:27.921Z,8.19
2018-04-14T03:09:18.596Z,12.86
2018-04-14T03:15:09.202Z,9.15
2018-04-14T03:20:59.885Z,8.91
2018-04-14T03:26:50.612Z,13.56
2018-04-14T03:32:41.224Z,9.59
2018-04-14T03:38:31.829Z,12.89
2018-04-14T03:44:22.469Z,14.41
2018-04-14T03:50:13.162Z,7.73
2018-04-14T03:56:03.870Z,11.32
2018-04-14T04:01:54.467Z,25.14
2018-04-14T04:07:45.060Z,67.27
2018-04-14T04:13:35.729Z,39.92
2018-04-14T04:19:26.469Z,32.76
2018-04-14T04:25:17.001Z,29.65
2018-04-14T04:31:07.661Z,26.55
2018-04-14T04:36:58.320Z,25.02
2018-04-14T04:42:48.961Z,29.81
2018-04-14T04:48:39.678Z,28.18
2018-04-14T04:54:30.278Z,28.24
2018-04-14T05:00:20.971Z,26.45
2018-04-14T05:06:11.525Z,27.33
2018-04-14T05:12:02.195Z,23.11
2018-04-14T05:17:52.839Z,26.03
2018-04-14T05:23:43.475Z,20.08
2018-04-14T05:29:34.098Z,23.08
2018-04-14T05:35:24.751Z,43.4
2018-04-14T05:41:15.465Z,34.9
2018-04-14T05:47:06.036Z,26.88
2018-04-14T05:52:56.678Z,20.34
2018-04-14T05:58:47.395Z,17.29
2018-04-14T06:04:38.063Z,17.56
2018-04-14T06:10:28.861Z,17.76
2018-04-14T06:16:19.284Z,13.9
2018-04-14T06:22:10.038Z,16.71
2018-04-14T06:28:00.646Z,19.87
2018-04-14T06:33:51.284Z,6.44
2018-04-14T06:39:41.958Z,9.11
2018-04-14T06:45:32.538Z,10.06
2018-04-14T06:51:23.299Z,7.02
2018-04-14T06:57:13.861Z,16.14
2018-04-14T07:03:04.532Z,11.15
2018-04-14T07:08:55.233Z,7.54
2018-04-14T07:14:45.871Z,9.52
2018-04-14T07:20:36.630Z,13.64
2018-04-14T07:26:27.260Z,8.88
2018-04-14T07:32:17.887Z,8.54
2018-04-14T07:38:08.537Z,6.38
2018-04-14T07:43:59.304Z,6.95
2018-04-14T07:49:49.888Z,13.31
2018-04-14T07:55:40.629Z,9.64
2018-04-14T08:01:31.300Z,8.62
2018-04-14T08:07:21.953Z,9.29
2018-04-14T08:13:12.685Z,8.04
2018-04-14T08:19:03.374Z,8.94
2018-04-14T08:24:54.022Z,9.03
2018-04-14T08:30:44.782Z,8.46
2018-04-14T08:36:35.414Z,7.31
2018-04-14T08:42:26.115Z,7.16
2018-04-14T08:48:16.837Z,8.04
2018-04-14T08:54:07.473Z,7.28
2018-04-14T08:59:58.184Z,10.66
2018-04-14T09:05:48.907Z,11.69
2018-04-14T09:11:39.576Z,9.89
2018-04-14T09:17:30.319Z,8.76
2018-04-14T09:23:20.965Z,5.57
2018-04-14T09:29:11.690Z,11.97
2018-04-14T09:35:02.401Z,9.77
2018-04-14T09:40:53.088Z,8
2018-04-14T09:46:43.767Z,11.96
2018-04-14T09:52:34.486Z,6.63
2018-04-14T09:58:25.164Z,10.47
2018-04-14T10:04:15.885Z,8.99
2018-04-14T10:10:06.690Z,10
2018-04-14T10:15:57.305Z,12.54
2018-04-14T10:21:48.034Z,17.9
2018-04-14T10:27:38.738Z,12.5
2018-04-14T10:33:29.466Z,8.95
2018-04-14T10:39:20.198Z,18.47
2018-04-14T10:45:10.907Z,10.47
2018-04-14T10:51:01.636Z,8.76
2018-04-14T10:56:52.310Z,9.94
2018-04-14T11:02:42.997Z,8.29
2018-04-14T11:08:33.717Z,11.52
2018-04-14T11:14:24.513Z,13.69
2018-04-14T11:20:15.236Z,7.9
2018-04-14T11:26:05.890Z,10.54
2018-04-14T11:31:56.609Z,15.41
2018-04-14T11:37:47.351Z,8.65
2018-04-14T11:43:38.052Z,6.36
2018-04-14T11:49:28.766Z,7.84
2018-04-14T11:55:19.591Z,9.08
2018-04-14T12:01:10.246Z,11.22
2018-04-14T12:07:00.977Z,12.55
2018-04-14T12:12:51.714Z,7.99
2018-04-14T12:18:42.384Z,9.22
2018-04-14T12:24:33.115Z,10.2
2018-04-14T12:30:23.876Z,6.22
2018-04-14T12:36:14.599Z,11.25
2018-04-14T12:42:05.316Z,14.91
2018-04-14T12:47:56.063Z,7.59
2018-04-14T12:53:46.797Z,12.38
2018-04-14T12:59:37.517Z,11.85
2018-04-14T13:05:28.192Z,12.39
2018-04-14T13:11:18.935Z,8.98
2018-04-14T13:17:09.658Z,6.57
2018-04-14T13:23:00.386Z,7.29
2018-04-14T13:28:51.168Z,12.76
2018-04-14T13:34:41.816Z,10.02
2018-04-14T13:40:32.623Z,11.55
2018-04-14T13:46:23.291Z,12.06
2018-04-14T13:52:13.977Z,11.56
2018-04-14T13:58:04.729Z,9.15
2018-04-14T14:03:55.485Z,8.01
2018-04-14T14:09:46.195Z,13.76
2018-04-14T14:15:36.932Z,11.56
2018-04-14T14:21:27.662Z,9.49
2018-04-14T14:27:18.396Z,6.64
2018-04-14T14:33:09.130Z,9.2
2018-04-14T14:38:59.802Z,12.78
2018-04-14T14:44:50.553Z,7.33
2018-04-14T14:50:41.328Z,12.2
2018-04-14T14:56:31.979Z,12.25
2018-04-14T15:02:22.717Z,8.02
2018-04-14T15:08:13.479Z,9.14
2018-04-14T15:14:04.219Z,6.16
2018-04-14T15:19:54.868Z,10.13
2018-04-14T15:25:45.581Z,11.78
2018-04-14T15:31:36.329Z,8.3
2018-04-14T15:37:27.052Z,8.66
2018-04-14T15:43:17.681Z,9.01
2018-04-14T15:49:08.448Z,10.01
2018-04-14T15:54:59.163Z,9.11
2018-04-14T16:00:49.844Z,9.96
2018-04-14T16:06:40.581Z,13.82
2018-04-14T16:12:31.270Z,12.23
2018-04-14T16:18:21.965Z,8.57
2018-04-14T16:24:12.675Z,15.36
2018-04-14T16:30:03.376Z,7.5
2018-04-14T16:35:54.102Z,11.26
2018-04-14T16:41:44.797Z,8.92
2018-04-14T16:47:35.517Z,9.86
2018-04-14T16:53:26.232Z,7.25
2018-04-14T16:59:16.961Z,8.59
2018-04-14T17:05:07.694Z,4.93
2018-04-14T17:10:58.351Z,3.72
2018-04-14T17:16:49.074Z,2.96
2018-04-14T17:22:39.791Z,9.15
2018-04-14T17:28:30.525Z,13.85
2018-04-14T17:34:21.193Z,9.06
2018-04-14T17:40:11.911Z,3.15
2018-04-14T17:46:02.573Z,5.02
2018-04-14T17:51:53.296Z,5.77
2018-04-14T17:57:43.959Z,5
2018-04-14T18:03:34.706Z,7.64
2018-04-14T18:09:25.403Z,6.64
2018-04-14T18:15:16.110Z,5.11
2018-04-14T18:21:06.836Z,5.69
2018-04-14T18:26:57.466Z,4.67
2018-04-14T18:32:48.176Z,4.52
2018-04-14T18:38:38.883Z,4.05
2018-04-14T18:44:29.586Z,8.98
2018-04-14T18:50:20.329Z,4.69
2018-04-14T18:56:10.985Z,6.87
2018-04-14T19:02:01.677Z,7.95
2018-04-14T19:07:52.405Z,4.98
2018-04-14T19:13:43.098Z,8.81
2018-04-14T19:19:33.821Z,5.85
2018-04-14T19:25:24.517Z,4.61
2018-04-14T19:31:15.195Z,6.94
2018-04-14T19:37:05.895Z,3.55
2018-04-14T19:42:56.557Z,5.28
2018-04-14T19:48:47.248Z,4.6
2018-04-14T19:54:37.967Z,8.68
2018-04-14T20:00:28.675Z,4.18
2018-04-14T20:06:19.354Z,10.59
2018-04-14T20:12:10.033Z,4.77
2018-04-14T20:18:00.758Z,4.82
2018-04-14T20:23:51.437Z,3.61
2018-04-14T20:29:42.170Z,4.1
2018-04-14T20:35:32.829Z,5.54
2018-04-14T20:41:23.540Z,6.61
2018-04-14T20:47:14.262Z,3.34
2018-04-14T20:53:04.911Z,6.91
2018-04-14T20:58:55.681Z,8.11
2018-04-14T21:04:46.295Z,9.95
2018-04-14T21:10:36.991Z,15.73
2018-04-14T21:16:27.700Z,9.17
2018-04-14T21:22:18.338Z,4.87
2018-04-14T21:28:09.052Z,4.66
2018-04-14T21:33:59.724Z,6.17
2018-04-14T21:39:50.417Z,5.65
2018-04-14T21:45:41.108Z,12.03
2018-04-14T21:51:31.809Z,5.9
2018-04-14T21:57:22.535Z,7.03
2018-04-14T22:03:13.194Z,7.68
2018-04-14T22:09:03.892Z,8.59
2018-04-14T22:14:54.606Z,4.37
2018-04-14T22:20:45.252Z,3.89
2018-04-14T22:26:35.944Z,7.31
2018-04-14T22:32:26.616Z,3.83
2018-04-14T22:38:17.336Z,3.34
2018-04-14T22:44:08.010Z,5.73
2018-04-14T22:49:58.681Z,7.22
2018-04-14T22:55:49.943Z,4.21
2018-04-14T23:01:40.108Z,5.46
2018-04-14T23:07:30.869Z,6.43
2018-04-14T23:13:21.512Z,11.67
2018-04-14T23:19:12.194Z,4.23
2018-04-14T23:25:02.866Z,6.97
2018-04-14T23:30:53.571Z,4.78
2018-04-14T23:36:44.285Z,12.52
2018-04-14T23:42:34.972Z,5.46
2018-04-14T23:48:25.637Z,3.61
2018-04-14T23:54:16.332Z,7.27
